Terminal Aerodrome Forecast
Issued by NWS

Home | Current Version | Previous Version | Text Only | Print | Product List | Glossary On
Versions: 1 2 3 4 5 6 7 8 9 10 11 12 13 14 15 16 17 18 19 20 21
297
FTUS45 KRIW 302333
TAFLND
TAF
KLND 302333Z 0100/0124 10009KT 6SM -RASN OVC015
     FM010400 VRB05KT P6SM VCSH OVC022
     FM011000 VRB04KT 3SM BR VCFG OVC002
     FM011500 VRB04KT P6SM SCT005 OVC011
     FM011900 VRB04KT P6SM SCT045=

USA.gov is the U.S. government's official web portal to all federal, state and local government web resources and services.